sensor_id;sensor_type;location;lat;lon;timestamp;pressure;altitude;pressure_sealevel;temperature
69857;BMP280;57147;53.582;10.112;2023-04-25T00:02:21;100637.66;;;6.02
69857;BMP280;57147;53.582;10.112;2023-04-25T00:07:22;100660.53;;;5.86
69857;BMP280;57147;53.582;10.112;2023-04-25T00:12:23;100655.50;;;5.90
69857;BMP280;57147;53.582;10.112;2023-04-25T00:17:26;100689.81;;;5.95
69857;BMP280;57147;53.582;10.112;2023-04-25T00:22:26;100761.47;;;5.92
69857;BMP280;57147;53.582;10.112;2023-04-25T00:27:27;100710.31;;;5.41
69857;BMP280;57147;53.582;10.112;2023-04-25T00:32:30;100753.16;;;5.63
69857;BMP280;57147;53.582;10.112;2023-04-25T00:37:31;100721.47;;;5.53
69857;BMP280;57147;53.582;10.112;2023-04-25T00:42:32;100701.78;;;5.65
69857;BMP280;57147;53.582;10.112;2023-04-25T00:47:35;100656.72;;;5.57
69857;BMP280;57147;53.582;10.112;2023-04-25T00:52:38;100413.09;;;5.44
69857;BMP280;57147;53.582;10.112;2023-04-25T00:57:39;100342.81;;;5.34
69857;BMP280;57147;53.582;10.112;2023-04-25T01:02:44;100288.03;;;5.26
69857;BMP280;57147;53.582;10.112;2023-04-25T01:07:45;100282.28;;;5.24
69857;BMP280;57147;53.582;10.112;2023-04-25T01:12:46;100259.63;;;5.18
69857;BMP280;57147;53.582;10.112;2023-04-25T01:17:49;100261.19;;;5.19
69857;BMP280;57147;53.582;10.112;2023-04-25T01:22:53;100208.31;;;4.95
69857;BMP280;57147;53.582;10.112;2023-04-25T01:27:54;100219.63;;;5.06
69857;BMP280;57147;53.582;10.112;2023-04-25T01:32:55;100202.25;;;4.95
69857;BMP280;57147;53.582;10.112;2023-04-25T01:37:59;100231.72;;;5.07
69857;BMP280;57147;53.582;10.112;2023-04-25T01:42:59;100199.59;;;5.00
69857;BMP280;57147;53.582;10.112;2023-04-25T01:48:00;100191.47;;;4.96
69857;BMP280;57147;53.582;10.112;2023-04-25T01:53:04;100207.50;;;4.95
69857;BMP280;57147;53.582;10.112;2023-04-25T01:58:05;100198.56;;;4.86
69857;BMP280;57147;53.582;10.112;2023-04-25T02:03:05;100198.56;;;4.86
69857;BMP280;57147;53.582;10.112;2023-04-25T02:08:09;100171.72;;;4.58
69857;BMP280;57147;53.582;10.112;2023-04-25T02:13:09;100229.06;;;5.02
69857;BMP280;57147;53.582;10.112;2023-04-25T02:18:10;100229.59;;;5.14
69857;BMP280;57147;53.582;10.112;2023-04-25T02:23:13;100239.09;;;5.10
69857;BMP280;57147;53.582;10.112;2023-04-25T02:28:14;100256.97;;;5.18
69857;BMP280;57147;53.582;10.112;2023-04-25T02:33:14;100226.97;;;4.99
69857;BMP280;57147;53.582;10.112;2023-04-25T02:38:18;100236.97;;;5.07
69857;BMP280;57147;53.582;10.112;2023-04-25T02:43:18;100240.16;;;5.09
69857;BMP280;57147;53.582;10.112;2023-04-25T02:48:19;100243.28;;;5.16
69857;BMP280;57147;53.582;10.112;2023-04-25T02:53:22;100258.56;;;5.19
69857;BMP280;57147;53.582;10.112;2023-04-25T02:58:23;100272.25;;;5.26
69857;BMP280;57147;53.582;10.112;2023-04-25T03:03:24;100244.06;;;5.12
69857;BMP280;57147;53.582;10.112;2023-04-25T03:08:27;100273.31;;;5.10
69857;BMP280;57147;53.582;10.112;2023-04-25T03:13:27;100260.63;;;4.97
69857;BMP280;57147;53.582;10.112;2023-04-25T03:18:28;100281.69;;;4.82
69857;BMP280;57147;53.582;10.112;2023-04-25T03:23:31;100311.59;;;4.71
69857;BMP280;57147;53.582;10.112;2023-04-25T03:28:32;100311.03;;;4.58
69857;BMP280;57147;53.582;10.112;2023-04-25T03:33:32;100329.91;;;4.45
69857;BMP280;57147;53.582;10.112;2023-04-25T03:38:35;100335.13;;;4.35
69857;BMP280;57147;53.582;10.112;2023-04-25T03:43:36;100339.84;;;4.38
69857;BMP280;57147;53.582;10.112;2023-04-25T03:48:37;100367.16;;;4.32
69857;BMP280;57147;53.582;10.112;2023-04-25T03:53:40;100349.22;;;4.19
69857;BMP280;57147;53.582;10.112;2023-04-25T03:58:41;100350.41;;;4.43
69857;BMP280;57147;53.582;10.112;2023-04-25T04:03:41;100379.41;;;4.58
69857;BMP280;57147;53.582;10.112;2023-04-25T04:08:44;100389.59;;;4.50
69857;BMP280;57147;53.582;10.112;2023-04-25T04:13:45;100401.47;;;4.57
69857;BMP280;57147;53.582;10.112;2023-04-25T04:18:46;100404.00;;;4.42
69857;BMP280;57147;53.582;10.112;2023-04-25T04:23:49;100416.53;;;4.30
69857;BMP280;57147;53.582;10.112;2023-04-25T04:28:50;100413.75;;;4.10
69857;BMP280;57147;53.582;10.112;2023-04-25T04:33:50;100433.28;;;4.19
69857;BMP280;57147;53.582;10.112;2023-04-25T04:38:54;100439.59;;;4.23
69857;BMP280;57147;53.582;10.112;2023-04-25T04:43:54;100436.34;;;4.43
69857;BMP280;57147;53.582;10.112;2023-04-25T04:48:59;100465.16;;;4.70
69857;BMP280;57147;53.582;10.112;2023-04-25T04:54:02;100448.94;;;4.78
69857;BMP280;57147;53.582;10.112;2023-04-25T04:59:04;100444.22;;;4.85
69857;BMP280;57147;53.582;10.112;2023-04-25T05:04:05;100442.25;;;4.60
69857;BMP280;57147;53.582;10.112;2023-04-25T05:09:09;100466.84;;;4.91
69857;BMP280;57147;53.582;10.112;2023-04-25T05:14:12;100453.44;;;4.97
69857;BMP280;57147;53.582;10.112;2023-04-25T05:19:13;100507.50;;;5.15
69857;BMP280;57147;53.582;10.112;2023-04-25T05:24:16;100517.38;;;4.98
69857;BMP280;57147;53.582;10.112;2023-04-25T05:29:17;100490.72;;;4.74
69857;BMP280;57147;53.582;10.112;2023-04-25T05:34:20;100487.34;;;4.79
69857;BMP280;57147;53.582;10.112;2023-04-25T05:39:24;100491.31;;;4.81
69857;BMP280;57147;53.582;10.112;2023-04-25T05:44:24;100502.09;;;4.85
69857;BMP280;57147;53.582;10.112;2023-04-25T05:49:25;100485.00;;;4.82
69857;BMP280;57147;53.582;10.112;2023-04-25T05:54:28;100504.28;;;5.03
69857;BMP280;57147;53.582;10.112;2023-04-25T05:59:29;100508.03;;;5.17
69857;BMP280;57147;53.582;10.112;2023-04-25T06:04:29;100486.84;;;4.92
69857;BMP280;57147;53.582;10.112;2023-04-25T06:09:34;100500.72;;;5.24
69857;BMP280;57147;53.582;10.112;2023-04-25T06:14:38;100525.59;;;5.64
69857;BMP280;57147;53.582;10.112;2023-04-25T06:19:43;100503.47;;;5.60
69857;BMP280;57147;53.582;10.112;2023-04-25T06:24:46;100558.31;;;5.93
69857;BMP280;57147;53.582;10.112;2023-04-25T06:29:50;100558.28;;;5.83
69857;BMP280;57147;53.582;10.112;2023-04-25T06:34:51;100541.47;;;6.15
69857;BMP280;57147;53.582;10.112;2023-04-25T06:39:54;100550.97;;;6.10
69857;BMP280;57147;53.582;10.112;2023-04-25T06:44:54;100550.16;;;6.05
69857;BMP280;57147;53.582;10.112;2023-04-25T06:49:55;100552.06;;;6.35
69857;BMP280;57147;53.582;10.112;2023-04-25T06:55:06;100553.63;;;6.36
69857;BMP280;57147;53.582;10.112;2023-04-25T07:00:16;100573.94;;;6.51
69857;BMP280;57147;53.582;10.112;2023-04-25T07:05:17;100573.91;;;6.25
69857;BMP280;57147;53.582;10.112;2023-04-25T07:10:32;100580.00;;;6.46
69857;BMP280;57147;53.582;10.112;2023-04-25T07:15:33;100584.72;;;6.29
69857;BMP280;57147;53.582;10.112;2023-04-25T07:20:34;100586.31;;;6.50
69857;BMP280;57147;53.582;10.112;2023-04-25T07:25:38;100599.00;;;6.53
69857;BMP280;57147;53.582;10.112;2023-04-25T07:30:42;100583.00;;;5.67
69857;BMP280;57147;53.582;10.112;2023-04-25T07:35:42;100491.78;;;4.41
69857;BMP280;57147;53.582;10.112;2023-04-25T07:40:48;100478.88;;;4.35
69857;BMP280;57147;53.582;10.112;2023-04-25T07:45:51;100463.91;;;4.40
69857;BMP280;57147;53.582;10.112;2023-04-25T07:50:51;100504.72;;;4.90
69857;BMP280;57147;53.582;10.112;2023-04-25T07:55:54;100515.47;;;5.30
69857;BMP280;57147;53.582;10.112;2023-04-25T08:00:55;100529.66;;;5.24
69857;BMP280;57147;53.582;10.112;2023-04-25T08:05:56;100561.94;;;5.77
69857;BMP280;57147;53.582;10.112;2023-04-25T08:10:59;100565.22;;;6.40
69857;BMP280;57147;53.582;10.112;2023-04-25T08:15:59;100577.09;;;6.47
69857;BMP280;57147;53.582;10.112;2023-04-25T08:21:00;100631.41;;;6.69
69857;BMP280;57147;53.582;10.112;2023-04-25T08:26:03;100604.78;;;6.45
69857;BMP280;57147;53.582;10.112;2023-04-25T08:31:04;100619.31;;;5.50
69857;BMP280;57147;53.582;10.112;2023-04-25T08:36:05;100512.25;;;4.34
69857;BMP280;57147;53.582;10.112;2023-04-25T08:41:11;100527.81;;;4.78
69857;BMP280;57147;53.582;10.112;2023-04-25T08:46:12;100548.13;;;5.39
69857;BMP280;57147;53.582;10.112;2023-04-25T08:51:22;100581.66;;;5.49
69857;BMP280;57147;53.582;10.112;2023-04-25T08:56:25;100550.75;;;4.87
69857;BMP280;57147;53.582;10.112;2023-04-25T09:01:26;100543.78;;;5.08
69857;BMP280;57147;53.582;10.112;2023-04-25T09:06:28;100558.50;;;5.04
69857;BMP280;57147;53.582;10.112;2023-04-25T09:11:31;100560.56;;;5.49
69857;BMP280;57147;53.582;10.112;2023-04-25T09:16:32;100631.84;;;5.95
69857;BMP280;57147;53.582;10.112;2023-04-25T09:21:34;100617.28;;;5.82
69857;BMP280;57147;53.582;10.112;2023-04-25T09:26:37;100695.50;;;6.49
69857;BMP280;57147;53.582;10.112;2023-04-25T09:31:38;100729.31;;;6.88
69857;BMP280;57147;53.582;10.112;2023-04-25T09:36:38;100734.00;;;6.60
69857;BMP280;57147;53.582;10.112;2023-04-25T09:41:46;100734.59;;;7.28
69857;BMP280;57147;53.582;10.112;2023-04-25T09:46:49;100755.72;;;7.03
69857;BMP280;57147;53.582;10.112;2023-04-25T09:51:56;100673.63;;;4.92
69857;BMP280;57147;53.582;10.112;2023-04-25T09:57:02;100629.72;;;3.85
69857;BMP280;57147;53.582;10.112;2023-04-25T10:02:06;100623.97;;;4.37
69857;BMP280;57147;53.582;10.112;2023-04-25T10:07:08;100632.53;;;4.81
69857;BMP280;57147;53.582;10.112;2023-04-25T10:12:12;100616.00;;;5.27
69857;BMP280;57147;53.582;10.112;2023-04-25T10:17:13;100642.13;;;6.01
69857;BMP280;57147;53.582;10.112;2023-04-25T10:22:17;100677.06;;;6.54
69857;BMP280;57147;53.582;10.112;2023-04-25T10:27:21;100738.00;;;6.83
69857;BMP280;57147;53.582;10.112;2023-04-25T10:32:22;100789.00;;;7.09
69857;BMP280;57147;53.582;10.112;2023-04-25T10:37:24;100797.16;;;7.12
69857;BMP280;57147;53.582;10.112;2023-04-25T10:42:28;100787.13;;;7.04
69857;BMP280;57147;53.582;10.112;2023-04-25T10:47:34;100798.50;;;7.05
69857;BMP280;57147;53.582;10.112;2023-04-25T10:52:38;100774.69;;;7.60
69857;BMP280;57147;53.582;10.112;2023-04-25T10:57:42;100781.63;;;8.21
69857;BMP280;57147;53.582;10.112;2023-04-25T11:02:44;100781.06;;;8.73
69857;BMP280;57147;53.582;10.112;2023-04-25T11:07:50;100790.78;;;7.74
69857;BMP280;57147;53.582;10.112;2023-04-25T11:12:53;100805.28;;;7.97
69857;BMP280;57147;53.582;10.112;2023-04-25T11:17:54;100801.22;;;8.25
69857;BMP280;57147;53.582;10.112;2023-04-25T11:22:57;100833.34;;;7.52
69857;BMP280;57147;53.582;10.112;2023-04-25T11:28:00;100832.56;;;7.06
69857;BMP280;57147;53.582;10.112;2023-04-25T11:33:01;100837.00;;;6.96
69857;BMP280;57147;53.582;10.112;2023-04-25T11:38:01;100833.31;;;6.97
69857;BMP280;57147;53.582;10.112;2023-04-25T11:43:05;100837.06;;;7.26
69857;BMP280;57147;53.582;10.112;2023-04-25T11:48:05;100842.34;;;7.16
69857;BMP280;57147;53.582;10.112;2023-04-25T11:53:06;100844.19;;;7.10
69857;BMP280;57147;53.582;10.112;2023-04-25T11:58:09;100847.63;;;7.36
69857;BMP280;57147;53.582;10.112;2023-04-25T12:03:10;100840.09;;;8.24
69857;BMP280;57147;53.582;10.112;2023-04-25T12:08:11;100852.09;;;9.39
69857;BMP280;57147;53.582;10.112;2023-04-25T12:13:21;100848.91;;;9.37
69857;BMP280;57147;53.582;10.112;2023-04-25T12:18:24;100866.34;;;9.43
69857;BMP280;57147;53.582;10.112;2023-04-25T12:23:28;100872.97;;;9.11
69857;BMP280;57147;53.582;10.112;2023-04-25T12:28:32;100872.13;;;8.77
69857;BMP280;57147;53.582;10.112;2023-04-25T12:33:34;100887.25;;;8.66
69857;BMP280;57147;53.582;10.112;2023-04-25T12:38:36;100857.38;;;8.61
69857;BMP280;57147;53.582;10.112;2023-04-25T12:43:39;100882.38;;;9.62
69857;BMP280;57147;53.582;10.112;2023-04-25T12:48:42;100886.78;;;10.19
69857;BMP280;57147;53.582;10.112;2023-04-25T12:53:42;100882.53;;;9.07
69857;BMP280;57147;53.582;10.112;2023-04-25T12:58:46;100925.72;;;8.44
69857;BMP280;57147;53.582;10.112;2023-04-25T13:03:46;100923.19;;;7.88
69857;BMP280;57147;53.582;10.112;2023-04-25T13:08:47;100876.66;;;7.82
69857;BMP280;57147;53.582;10.112;2023-04-25T13:13:50;100924.91;;;8.53
69857;BMP280;57147;53.582;10.112;2023-04-25T13:18:51;100967.34;;;8.97
69857;BMP280;57147;53.582;10.112;2023-04-25T13:23:51;100986.94;;;9.40
69857;BMP280;57147;53.582;10.112;2023-04-25T13:28:55;100966.94;;;6.51
69857;BMP280;57147;53.582;10.112;2023-04-25T13:33:55;100941.50;;;6.92
69857;BMP280;57147;53.582;10.112;2023-04-25T13:38:56;100954.25;;;7.05
69857;BMP280;57147;53.582;10.112;2023-04-25T13:43:59;100951.06;;;8.60
69857;BMP280;57147;53.582;10.112;2023-04-25T13:49:00;100961.47;;;8.31
69857;BMP280;57147;53.582;10.112;2023-04-25T13:54:00;100976.22;;;7.20
69857;BMP280;57147;53.582;10.112;2023-04-25T13:59:04;100884.41;;;5.44
69857;BMP280;57147;53.582;10.112;2023-04-25T14:04:04;100874.03;;;5.32
69857;BMP280;57147;53.582;10.112;2023-04-25T14:09:05;100929.28;;;5.86
69857;BMP280;57147;53.582;10.112;2023-04-25T14:14:08;100959.44;;;6.84
69857;BMP280;57147;53.582;10.112;2023-04-25T14:19:09;100960.50;;;6.83
69857;BMP280;57147;53.582;10.112;2023-04-25T14:24:10;100925.06;;;6.69
69857;BMP280;57147;53.582;10.112;2023-04-25T14:29:13;100952.78;;;7.95
69857;BMP280;57147;53.582;10.112;2023-04-25T14:34:13;100986.16;;;9.40
69857;BMP280;57147;53.582;10.112;2023-04-25T14:39:14;100949.13;;;9.30
69857;BMP280;57147;53.582;10.112;2023-04-25T14:44:17;100955.84;;;8.53
69857;BMP280;57147;53.582;10.112;2023-04-25T14:49:19;100963.63;;;8.98
69857;BMP280;57147;53.582;10.112;2023-04-25T14:54:21;100953.31;;;8.92
69857;BMP280;57147;53.582;10.112;2023-04-25T14:59:24;100957.69;;;9.89
69857;BMP280;57147;53.582;10.112;2023-04-25T15:04:25;101011.81;;;9.00
69857;BMP280;57147;53.582;10.112;2023-04-25T15:09:26;100987.06;;;8.46
69857;BMP280;57147;53.582;10.112;2023-04-25T15:14:29;101032.06;;;7.65
69857;BMP280;57147;53.582;10.112;2023-04-25T15:19:29;101036.81;;;7.57
69857;BMP280;57147;53.582;10.112;2023-04-25T15:24:30;101026.28;;;8.44
69857;BMP280;57147;53.582;10.112;2023-04-25T15:29:33;101019.38;;;8.43
69857;BMP280;57147;53.582;10.112;2023-04-25T15:34:34;101020.22;;;9.18
69857;BMP280;57147;53.582;10.112;2023-04-25T15:39:34;101017.97;;;8.86
69857;BMP280;57147;53.582;10.112;2023-04-25T15:44:38;101022.06;;;7.87
69857;BMP280;57147;53.582;10.112;2023-04-25T15:49:38;101026.16;;;8.94
69857;BMP280;57147;53.582;10.112;2023-04-25T15:54:39;101026.69;;;8.91
69857;BMP280;57147;53.582;10.112;2023-04-25T15:59:42;101020.16;;;8.53
69857;BMP280;57147;53.582;10.112;2023-04-25T16:04:44;101030.78;;;7.92
69857;BMP280;57147;53.582;10.112;2023-04-25T16:09:44;101027.56;;;8.51
69857;BMP280;57147;53.582;10.112;2023-04-25T16:14:47;101028.13;;;8.43
69857;BMP280;57147;53.582;10.112;2023-04-25T16:19:48;101031.56;;;8.54
69857;BMP280;57147;53.582;10.112;2023-04-25T16:24:49;101028.88;;;8.59
69857;BMP280;57147;53.582;10.112;2023-04-25T16:29:52;101026.97;;;8.85
69857;BMP280;57147;53.582;10.112;2023-04-25T16:34:53;101053.44;;;8.85
69857;BMP280;57147;53.582;10.112;2023-04-25T16:39:55;101054.28;;;8.70
69857;BMP280;57147;53.582;10.112;2023-04-25T16:44:58;101041.44;;;9.07
69857;BMP280;57147;53.582;10.112;2023-04-25T16:49:59;101000.88;;;7.56
69857;BMP280;57147;53.582;10.112;2023-04-25T16:55:01;101080.22;;;7.09
69857;BMP280;57147;53.582;10.112;2023-04-25T17:00:05;101074.09;;;6.99
69857;BMP280;57147;53.582;10.112;2023-04-25T17:05:07;101076.97;;;6.60
69857;BMP280;57147;53.582;10.112;2023-04-25T17:10:09;101066.44;;;6.01
69857;BMP280;57147;53.582;10.112;2023-04-25T17:15:12;101062.63;;;5.87
69857;BMP280;57147;53.582;10.112;2023-04-25T17:20:13;101062.44;;;5.45
69857;BMP280;57147;53.582;10.112;2023-04-25T17:25:14;100896.78;;;4.18
69857;BMP280;57147;53.582;10.112;2023-04-25T17:30:17;100921.78;;;4.37
69857;BMP280;57147;53.582;10.112;2023-04-25T17:35:18;100922.75;;;3.98
69857;BMP280;57147;53.582;10.112;2023-04-25T17:40:19;100887.34;;;3.55
69857;BMP280;57147;53.582;10.112;2023-04-25T17:45:22;100954.38;;;3.74
69857;BMP280;57147;53.582;10.112;2023-04-25T17:50:23;100955.44;;;3.90
69857;BMP280;57147;53.582;10.112;2023-04-25T17:55:23;100962.34;;;3.79
69857;BMP280;57147;53.582;10.112;2023-04-25T18:00:27;100995.19;;;3.93
69857;BMP280;57147;53.582;10.112;2023-04-25T18:05:27;100939.59;;;3.68
69857;BMP280;57147;53.582;10.112;2023-04-25T18:10:28;100988.78;;;3.89
69857;BMP280;57147;53.582;10.112;2023-04-25T18:15:31;101005.78;;;3.99
69857;BMP280;57147;53.582;10.112;2023-04-25T18:20:32;101000.63;;;4.20
69857;BMP280;57147;53.582;10.112;2023-04-25T18:25:32;101036.41;;;4.38
69857;BMP280;57147;53.582;10.112;2023-04-25T18:30:36;101039.03;;;4.38
69857;BMP280;57147;53.582;10.112;2023-04-25T18:35:36;101035.88;;;4.36
69857;BMP280;57147;53.582;10.112;2023-04-25T18:40:37;101034.75;;;4.32
69857;BMP280;57147;53.582;10.112;2023-04-25T18:45:41;101052.91;;;4.34
69857;BMP280;57147;53.582;10.112;2023-04-25T18:50:41;101048.75;;;4.21
69857;BMP280;57147;53.582;10.112;2023-04-25T18:55:42;101023.50;;;3.91
69857;BMP280;57147;53.582;10.112;2023-04-25T19:00:45;101060.53;;;4.07
69857;BMP280;57147;53.582;10.112;2023-04-25T19:05:46;101070.13;;;4.13
69857;BMP280;57147;53.582;10.112;2023-04-25T19:10:47;101079.66;;;4.02
69857;BMP280;57147;53.582;10.112;2023-04-25T19:15:50;101058.81;;;3.96
69857;BMP280;57147;53.582;10.112;2023-04-25T19:20:51;101061.63;;;3.66
69857;BMP280;57147;53.582;10.112;2023-04-25T19:25:52;101050.09;;;3.55
69857;BMP280;57147;53.582;10.112;2023-04-25T19:30:55;101021.84;;;3.34
69857;BMP280;57147;53.582;10.112;2023-04-25T19:35:56;101067.22;;;3.69
69857;BMP280;57147;53.582;10.112;2023-04-25T19:40:56;101067.56;;;3.61
69857;BMP280;57147;53.582;10.112;2023-04-25T19:46:00;101060.56;;;3.78
69857;BMP280;57147;53.582;10.112;2023-04-25T19:51:00;101090.34;;;3.84
69857;BMP280;57147;53.582;10.112;2023-04-25T19:56:01;101093.78;;;3.73
69857;BMP280;57147;53.582;10.112;2023-04-25T20:01:07;101089.16;;;3.63
69857;BMP280;57147;53.582;10.112;2023-04-25T20:06:08;101099.19;;;3.66
69857;BMP280;57147;53.582;10.112;2023-04-25T20:11:09;101109.41;;;3.91
69857;BMP280;57147;53.582;10.112;2023-04-25T20:16:12;101088.47;;;3.68
69857;BMP280;57147;53.582;10.112;2023-04-25T20:21:13;101069.88;;;3.22
69857;BMP280;57147;53.582;10.112;2023-04-25T20:26:14;101061.13;;;3.05
69857;BMP280;57147;53.582;10.112;2023-04-25T20:31:17;101073.22;;;3.06
69857;BMP280;57147;53.582;10.112;2023-04-25T20:36:18;101071.41;;;2.95
69857;BMP280;57147;53.582;10.112;2023-04-25T20:41:18;101065.44;;;2.88
69857;BMP280;57147;53.582;10.112;2023-04-25T20:46:22;101067.03;;;2.89
69857;BMP280;57147;53.582;10.112;2023-04-25T20:51:22;101060.66;;;2.85
69857;BMP280;57147;53.582;10.112;2023-04-25T20:56:23;101060.41;;;2.75
69857;BMP280;57147;53.582;10.112;2023-04-25T21:01:26;101054.69;;;2.78
69857;BMP280;57147;53.582;10.112;2023-04-25T21:06:27;101055.50;;;2.78
69857;BMP280;57147;53.582;10.112;2023-04-25T21:11:27;101062.25;;;2.86
69857;BMP280;57147;53.582;10.112;2023-04-25T21:16:31;101063.41;;;2.90
69857;BMP280;57147;53.582;10.112;2023-04-25T21:21:31;101075.63;;;3.08
69857;BMP280;57147;53.582;10.112;2023-04-25T21:26:32;101087.69;;;3.32
69857;BMP280;57147;53.582;10.112;2023-04-25T21:31:36;101092.59;;;3.29
69857;BMP280;57147;53.582;10.112;2023-04-25T21:36:38;101072.97;;;2.84
69857;BMP280;57147;53.582;10.112;2023-04-25T21:41:38;101070.28;;;2.20
69857;BMP280;57147;53.582;10.112;2023-04-25T21:46:42;101098.59;;;2.11
69857;BMP280;57147;53.582;10.112;2023-04-25T21:51:42;101105.50;;;2.05
69857;BMP280;57147;53.582;10.112;2023-04-25T21:56:43;101113.81;;;2.02
69857;BMP280;57147;53.582;10.112;2023-04-25T22:01:47;101104.59;;;2.00
69857;BMP280;57147;53.582;10.112;2023-04-25T22:06:48;101110.53;;;2.07
69857;BMP280;57147;53.582;10.112;2023-04-25T22:11:49;101083.16;;;2.21
69857;BMP280;57147;53.582;10.112;2023-04-25T22:16:52;101087.53;;;2.09
69857;BMP280;57147;53.582;10.112;2023-04-25T22:21:53;101077.50;;;2.06
69857;BMP280;57147;53.582;10.112;2023-04-25T22:26:53;101084.28;;;1.95
69857;BMP280;57147;53.582;10.112;2023-04-25T22:31:56;101082.63;;;2.01
69857;BMP280;57147;53.582;10.112;2023-04-25T22:36:57;101083.47;;;2.13
69857;BMP280;57147;53.582;10.112;2023-04-25T22:41:57;101085.50;;;2.11
69857;BMP280;57147;53.582;10.112;2023-04-25T22:47:01;101091.16;;;2.08
69857;BMP280;57147;53.582;10.112;2023-04-25T22:52:01;101101.97;;;2.00
69857;BMP280;57147;53.582;10.112;2023-04-25T22:57:05;101106.69;;;1.91
69857;BMP280;57147;53.582;10.112;2023-04-25T23:02:08;101112.72;;;1.92
69857;BMP280;57147;53.582;10.112;2023-04-25T23:07:09;101107.06;;;1.95
69857;BMP280;57147;53.582;10.112;2023-04-25T23:12:09;101131.84;;;1.92
69857;BMP280;57147;53.582;10.112;2023-04-25T23:17:13;101128.50;;;2.03
69857;BMP280;57147;53.582;10.112;2023-04-25T23:22:13;101106.59;;;2.16
69857;BMP280;57147;53.582;10.112;2023-04-25T23:27:14;101109.38;;;2.33
69857;BMP280;57147;53.582;10.112;2023-04-25T23:32:17;101109.00;;;2.47
69857;BMP280;57147;53.582;10.112;2023-04-25T23:37:18;101124.75;;;2.59
69857;BMP280;57147;53.582;10.112;2023-04-25T23:42:18;101116.75;;;2.84
69857;BMP280;57147;53.582;10.112;2023-04-25T23:47:22;101120.28;;;2.90
69857;BMP280;57147;53.582;10.112;2023-04-25T23:52:23;101105.31;;;2.67
69857;BMP280;57147;53.582;10.112;2023-04-25T23:57:24;101118.28;;;2.62
